sensor_id;sensor_type;location;lat;lon;timestamp;pressure;altitude;pressure_sealevel;temperature;humidity
70730;BME280;58315;53.336;55.932;2022-07-17T00:00:19;99826.78;;;21.89;61.30
70730;BME280;58315;53.336;55.932;2022-07-17T00:02:45;99825.53;;;21.79;61.85
70730;BME280;58315;53.336;55.932;2022-07-17T00:05:14;99826.97;;;21.75;62.00
70730;BME280;58315;53.336;55.932;2022-07-17T00:07:40;99823.44;;;21.74;61.69
70730;BME280;58315;53.336;55.932;2022-07-17T00:10:06;99830.47;;;21.75;61.68
70730;BME280;58315;53.336;55.932;2022-07-17T00:12:32;99827.19;;;21.80;61.64
70730;BME280;58315;53.336;55.932;2022-07-17T00:14:58;99836.53;;;21.90;61.07
70730;BME280;58315;53.336;55.932;2022-07-17T00:17:24;99833.19;;;21.88;61.01
70730;BME280;58315;53.336;55.932;2022-07-17T00:19:51;99833.59;;;21.85;61.34
70730;BME280;58315;53.336;55.932;2022-07-17T00:22:17;99832.75;;;21.78;61.50
70730;BME280;58315;53.336;55.932;2022-07-17T00:24:43;99835.47;;;21.65;61.57
70730;BME280;58315;53.336;55.932;2022-07-17T00:27:09;99834.16;;;21.48;61.74
70730;BME280;58315;53.336;55.932;2022-07-17T00:29:35;99833.75;;;21.44;61.96
70730;BME280;58315;53.336;55.932;2022-07-17T00:32:01;99838.09;;;21.45;62.24
70730;BME280;58315;53.336;55.932;2022-07-17T00:34:27;99835.81;;;21.49;62.34
70730;BME280;58315;53.336;55.932;2022-07-17T00:36:53;99835.00;;;21.55;62.04
70730;BME280;58315;53.336;55.932;2022-07-17T00:39:19;99841.25;;;21.69;61.65
70730;BME280;58315;53.336;55.932;2022-07-17T00:41:45;99836.06;;;21.74;61.82
70730;BME280;58315;53.336;55.932;2022-07-17T00:44:12;99851.16;;;21.75;61.84
70730;BME280;58315;53.336;55.932;2022-07-17T00:46:39;99844.16;;;21.87;61.27
70730;BME280;58315;53.336;55.932;2022-07-17T00:49:05;99844.38;;;21.99;60.96
70730;BME280;58315;53.336;55.932;2022-07-17T00:51:33;99854.09;;;22.06;60.89
70730;BME280;58315;53.336;55.932;2022-07-17T00:54:02;99854.94;;;22.07;60.59
70730;BME280;58315;53.336;55.932;2022-07-17T00:56:28;99853.28;;;21.99;61.08
70730;BME280;58315;53.336;55.932;2022-07-17T00:58:55;99859.88;;;21.97;60.89
70730;BME280;58315;53.336;55.932;2022-07-17T01:01:21;99862.38;;;21.98;61.47
70730;BME280;58315;53.336;55.932;2022-07-17T01:03:47;99859.28;;;22.08;61.11
70730;BME280;58315;53.336;55.932;2022-07-17T01:06:13;99859.31;;;22.14;60.73
70730;BME280;58315;53.336;55.932;2022-07-17T01:08:39;99866.72;;;22.52;60.73
70730;BME280;58315;53.336;55.932;2022-07-17T01:11:07;99862.22;;;23.18;59.66
70730;BME280;58315;53.336;55.932;2022-07-17T01:13:34;99866.25;;;23.85;57.98
70730;BME280;58315;53.336;55.932;2022-07-17T01:15:59;99870.06;;;24.27;56.37
70730;BME280;58315;53.336;55.932;2022-07-17T01:18:26;99866.34;;;24.53;55.54
70730;BME280;58315;53.336;55.932;2022-07-17T01:20:52;99859.59;;;24.63;55.02
70730;BME280;58315;53.336;55.932;2022-07-17T01:23:18;99852.56;;;24.62;54.49
70730;BME280;58315;53.336;55.932;2022-07-17T01:25:45;99847.34;;;24.97;54.26
70730;BME280;58315;53.336;55.932;2022-07-17T01:28:11;99849.53;;;25.07;53.54
70730;BME280;58315;53.336;55.932;2022-07-17T01:30:45;99850.00;;;25.03;53.62
70730;BME280;58315;53.336;55.932;2022-07-17T01:33:11;99845.34;;;24.74;53.91
70730;BME280;58315;53.336;55.932;2022-07-17T01:35:37;99846.50;;;24.41;54.54
70730;BME280;58315;53.336;55.932;2022-07-17T01:38:03;99841.75;;;24.12;55.17
70730;BME280;58315;53.336;55.932;2022-07-17T01:40:29;99835.47;;;23.93;55.57
70730;BME280;58315;53.336;55.932;2022-07-17T01:42:55;99841.66;;;23.68;56.34
70730;BME280;58315;53.336;55.932;2022-07-17T01:45:21;99840.44;;;23.57;56.65
70730;BME280;58315;53.336;55.932;2022-07-17T01:47:48;99839.94;;;23.42;56.96
70730;BME280;58315;53.336;55.932;2022-07-17T01:50:14;99843.88;;;23.40;57.20
70730;BME280;58315;53.336;55.932;2022-07-17T01:52:42;99858.00;;;23.35;57.37
70730;BME280;58315;53.336;55.932;2022-07-17T01:55:10;99851.56;;;23.36;57.33
70730;BME280;58315;53.336;55.932;2022-07-17T01:57:37;99857.00;;;23.29;57.49
70730;BME280;58315;53.336;55.932;2022-07-17T02:00:09;99849.75;;;23.30;58.08
70730;BME280;58315;53.336;55.932;2022-07-17T02:02:35;99854.53;;;23.21;58.23
70730;BME280;58315;53.336;55.932;2022-07-17T02:05:02;99859.75;;;23.23;58.14
70730;BME280;58315;53.336;55.932;2022-07-17T02:07:29;99860.97;;;23.27;58.22
70730;BME280;58315;53.336;55.932;2022-07-17T02:09:55;99861.56;;;23.29;58.14
70730;BME280;58315;53.336;55.932;2022-07-17T02:12:21;99859.22;;;23.39;58.09
70730;BME280;58315;53.336;55.932;2022-07-17T02:14:47;99861.66;;;23.47;58.13
70730;BME280;58315;53.336;55.932;2022-07-17T02:17:13;99854.59;;;23.53;58.00
70730;BME280;58315;53.336;55.932;2022-07-17T02:19:39;99851.03;;;23.59;57.73
70730;BME280;58315;53.336;55.932;2022-07-17T02:22:05;99853.50;;;23.61;58.06
70730;BME280;58315;53.336;55.932;2022-07-17T02:24:31;99853.31;;;23.62;58.04
70730;BME280;58315;53.336;55.932;2022-07-17T02:26:56;99848.75;;;23.63;57.95
70730;BME280;58315;53.336;55.932;2022-07-17T02:29:24;99848.94;;;23.68;57.86
70730;BME280;58315;53.336;55.932;2022-07-17T02:31:51;99847.06;;;23.68;58.10
70730;BME280;58315;53.336;55.932;2022-07-17T02:34:17;99845.56;;;23.72;58.15
70730;BME280;58315;53.336;55.932;2022-07-17T02:36:42;99835.97;;;23.83;58.15
70730;BME280;58315;53.336;55.932;2022-07-17T02:39:08;99843.97;;;23.96;58.08
70730;BME280;58315;53.336;55.932;2022-07-17T02:41:34;99851.06;;;24.16;57.65
70730;BME280;58315;53.336;55.932;2022-07-17T02:44:00;99854.53;;;24.23;57.74
70730;BME280;58315;53.336;55.932;2022-07-17T02:46:26;99845.22;;;24.19;57.83
70730;BME280;58315;53.336;55.932;2022-07-17T02:48:52;99853.44;;;24.30;57.88
70730;BME280;58315;53.336;55.932;2022-07-17T02:51:18;99851.03;;;24.47;57.44
70730;BME280;58315;53.336;55.932;2022-07-17T02:53:44;99850.44;;;24.64;57.55
70730;BME280;58315;53.336;55.932;2022-07-17T02:56:10;99858.56;;;25.19;57.64
70730;BME280;58315;53.336;55.932;2022-07-17T02:58:36;99852.91;;;26.23;55.95
70730;BME280;58315;53.336;55.932;2022-07-17T03:01:02;99861.75;;;27.40;54.87
70730;BME280;58315;53.336;55.932;2022-07-17T03:03:28;99863.69;;;28.53;52.64
70730;BME280;58315;53.336;55.932;2022-07-17T03:05:54;99866.34;;;29.52;50.84
70730;BME280;58315;53.336;55.932;2022-07-17T03:08:20;99875.22;;;30.66;48.27
70730;BME280;58315;53.336;55.932;2022-07-17T03:10:45;99867.97;;;31.55;46.25
70730;BME280;58315;53.336;55.932;2022-07-17T03:13:11;99872.44;;;32.28;44.97
70730;BME280;58315;53.336;55.932;2022-07-17T03:15:37;99864.41;;;32.87;42.81
70730;BME280;58315;53.336;55.932;2022-07-17T03:18:03;99878.13;;;33.42;43.07
70730;BME280;58315;53.336;55.932;2022-07-17T03:20:29;99879.19;;;33.96;40.64
70730;BME280;58315;53.336;55.932;2022-07-17T03:22:55;99875.94;;;34.28;40.41
70730;BME280;58315;53.336;55.932;2022-07-17T03:25:21;99874.56;;;34.60;40.63
70730;BME280;58315;53.336;55.932;2022-07-17T03:27:47;99874.81;;;35.11;39.47
70730;BME280;58315;53.336;55.932;2022-07-17T03:30:13;99873.47;;;35.52;38.19
70730;BME280;58315;53.336;55.932;2022-07-17T03:32:39;99872.91;;;35.87;38.67
70730;BME280;58315;53.336;55.932;2022-07-17T03:35:05;99877.28;;;35.88;37.14
70730;BME280;58315;53.336;55.932;2022-07-17T03:37:31;99870.75;;;35.84;36.89
70730;BME280;58315;53.336;55.932;2022-07-17T03:39:57;99871.22;;;36.24;36.88
70730;BME280;58315;53.336;55.932;2022-07-17T03:42:23;99881.13;;;36.39;36.88
70730;BME280;58315;53.336;55.932;2022-07-17T03:44:49;99877.09;;;36.64;36.36
70730;BME280;58315;53.336;55.932;2022-07-17T03:47:15;99874.56;;;36.81;35.84
70730;BME280;58315;53.336;55.932;2022-07-17T03:49:41;99873.34;;;36.27;35.85
70730;BME280;58315;53.336;55.932;2022-07-17T03:52:07;99870.31;;;36.29;36.63
70730;BME280;58315;53.336;55.932;2022-07-17T03:54:33;99869.19;;;36.90;35.49
70730;BME280;58315;53.336;55.932;2022-07-17T03:56:59;99860.53;;;37.60;34.60
70730;BME280;58315;53.336;55.932;2022-07-17T03:59:25;99862.63;;;38.00;32.90
70730;BME280;58315;53.336;55.932;2022-07-17T04:01:51;99865.06;;;38.01;31.86
70730;BME280;58315;53.336;55.932;2022-07-17T04:04:17;99867.88;;;38.10;32.33
70730;BME280;58315;53.336;55.932;2022-07-17T04:06:43;99866.38;;;37.81;32.56
70730;BME280;58315;53.336;55.932;2022-07-17T04:09:09;99877.59;;;36.52;32.96
70730;BME280;58315;53.336;55.932;2022-07-17T04:11:35;99875.97;;;35.67;34.56
70730;BME280;58315;53.336;55.932;2022-07-17T04:14:00;99879.09;;;35.60;35.33
70730;BME280;58315;53.336;55.932;2022-07-17T04:16:26;99868.00;;;36.03;33.75
70730;BME280;58315;53.336;55.932;2022-07-17T04:18:52;99868.38;;;35.78;34.46
70730;BME280;58315;53.336;55.932;2022-07-17T04:21:19;99869.72;;;35.99;34.58
70730;BME280;58315;53.336;55.932;2022-07-17T04:23:45;99860.34;;;36.46;33.94
70730;BME280;58315;53.336;55.932;2022-07-17T04:26:11;99858.78;;;36.73;33.31
70730;BME280;58315;53.336;55.932;2022-07-17T04:28:38;99870.88;;;37.27;32.78
70730;BME280;58315;53.336;55.932;2022-07-17T04:31:04;99872.69;;;37.82;33.18
70730;BME280;58315;53.336;55.932;2022-07-17T04:33:30;99874.66;;;38.04;32.62
70730;BME280;58315;53.336;55.932;2022-07-17T04:35:56;99875.16;;;37.70;32.01
70730;BME280;58315;53.336;55.932;2022-07-17T04:38:22;99878.00;;;38.23;31.49
70730;BME280;58315;53.336;55.932;2022-07-17T04:40:48;99873.00;;;38.88;30.60
70730;BME280;58315;53.336;55.932;2022-07-17T04:43:14;99875.03;;;39.22;30.22
70730;BME280;58315;53.336;55.932;2022-07-17T04:45:40;99875.75;;;39.36;30.62
70730;BME280;58315;53.336;55.932;2022-07-17T04:48:06;99884.72;;;39.76;29.99
70730;BME280;58315;53.336;55.932;2022-07-17T04:50:32;99878.28;;;40.37;29.42
70730;BME280;58315;53.336;55.932;2022-07-17T04:52:58;99878.16;;;40.24;29.30
70730;BME280;58315;53.336;55.932;2022-07-17T04:55:26;99880.09;;;40.33;29.37
70730;BME280;58315;53.336;55.932;2022-07-17T04:57:52;99882.69;;;40.29;29.45
70730;BME280;58315;53.336;55.932;2022-07-17T05:00:18;99891.00;;;40.85;28.18
70730;BME280;58315;53.336;55.932;2022-07-17T05:02:44;99883.16;;;40.87;28.12
70730;BME280;58315;53.336;55.932;2022-07-17T05:05:10;99889.34;;;40.37;28.51
70730;BME280;58315;53.336;55.932;2022-07-17T05:07:36;99889.94;;;39.87;28.39
70730;BME280;58315;53.336;55.932;2022-07-17T05:10:02;99894.28;;;39.44;29.02
70730;BME280;58315;53.336;55.932;2022-07-17T05:12:30;99897.34;;;39.34;29.03
70730;BME280;58315;53.336;55.932;2022-07-17T05:14:56;99891.53;;;39.53;29.31
70730;BME280;58315;53.336;55.932;2022-07-17T05:17:22;99897.50;;;39.29;29.37
70730;BME280;58315;53.336;55.932;2022-07-17T05:19:48;99895.28;;;38.60;30.15
70730;BME280;58315;53.336;55.932;2022-07-17T05:22:14;99891.59;;;38.73;30.43
70730;BME280;58315;53.336;55.932;2022-07-17T05:24:40;99895.31;;;39.00;29.84
70730;BME280;58315;53.336;55.932;2022-07-17T05:27:06;99893.56;;;39.21;29.68
70730;BME280;58315;53.336;55.932;2022-07-17T05:29:32;99895.56;;;40.08;29.38
70730;BME280;58315;53.336;55.932;2022-07-17T05:31:58;99888.59;;;40.75;28.60
70730;BME280;58315;53.336;55.932;2022-07-17T05:34:24;99888.63;;;41.04;28.34
70730;BME280;58315;53.336;55.932;2022-07-17T05:36:50;99895.47;;;41.28;26.72
70730;BME280;58315;53.336;55.932;2022-07-17T05:39:16;99892.19;;;41.34;27.06
70730;BME280;58315;53.336;55.932;2022-07-17T05:41:42;99876.28;;;41.23;27.00
70730;BME280;58315;53.336;55.932;2022-07-17T05:44:08;99876.19;;;41.61;27.42
70730;BME280;58315;53.336;55.932;2022-07-17T05:46:34;99871.94;;;41.84;26.73
70730;BME280;58315;53.336;55.932;2022-07-17T05:49:00;99875.91;;;42.29;26.38
70730;BME280;58315;53.336;55.932;2022-07-17T05:51:26;99870.34;;;41.75;26.34
70730;BME280;58315;53.336;55.932;2022-07-17T05:53:52;99869.38;;;41.58;26.06
70730;BME280;58315;53.336;55.932;2022-07-17T05:56:18;99867.84;;;41.82;26.80
70730;BME280;58315;53.336;55.932;2022-07-17T05:58:45;99879.34;;;42.71;25.49
70730;BME280;58315;53.336;55.932;2022-07-17T06:01:11;99878.72;;;42.53;25.75
70730;BME280;58315;53.336;55.932;2022-07-17T06:03:37;99874.13;;;42.70;25.66
70730;BME280;58315;53.336;55.932;2022-07-17T06:06:03;99864.84;;;42.78;25.92
70730;BME280;58315;53.336;55.932;2022-07-17T06:08:29;99868.09;;;42.92;25.51
70730;BME280;58315;53.336;55.932;2022-07-17T06:10:55;99868.22;;;43.08;25.03
70730;BME280;58315;53.336;55.932;2022-07-17T06:13:21;99865.53;;;42.75;25.36
70730;BME280;58315;53.336;55.932;2022-07-17T06:15:47;99867.03;;;42.02;25.71
70730;BME280;58315;53.336;55.932;2022-07-17T06:18:13;99862.16;;;41.78;26.23
70730;BME280;58315;53.336;55.932;2022-07-17T06:20:39;99863.81;;;41.58;26.37
70730;BME280;58315;53.336;55.932;2022-07-17T06:23:05;99870.22;;;41.71;26.50
70730;BME280;58315;53.336;55.932;2022-07-17T06:25:31;99865.66;;;41.54;26.57
70730;BME280;58315;53.336;55.932;2022-07-17T06:27:57;99859.50;;;41.49;26.73
70730;BME280;58315;53.336;55.932;2022-07-17T06:30:23;99865.75;;;41.37;26.91
70730;BME280;58315;53.336;55.932;2022-07-17T06:32:49;99857.22;;;40.53;27.03
70730;BME280;58315;53.336;55.932;2022-07-17T06:35:15;99860.75;;;40.07;27.71
70730;BME280;58315;53.336;55.932;2022-07-17T06:37:41;99849.91;;;39.75;27.61
70730;BME280;58315;53.336;55.932;2022-07-17T06:40:07;99844.94;;;38.32;29.12
70730;BME280;58315;53.336;55.932;2022-07-17T06:42:33;99852.44;;;37.14;30.86
70730;BME280;58315;53.336;55.932;2022-07-17T06:44:59;99843.88;;;36.74;30.98
70730;BME280;58315;53.336;55.932;2022-07-17T06:47:25;99835.31;;;36.62;31.72
70730;BME280;58315;53.336;55.932;2022-07-17T06:49:51;99834.84;;;36.27;31.37
70730;BME280;58315;53.336;55.932;2022-07-17T06:52:17;99833.53;;;35.92;32.86
70730;BME280;58315;53.336;55.932;2022-07-17T06:54:43;99833.03;;;35.71;32.93
70730;BME280;58315;53.336;55.932;2022-07-17T06:57:09;99835.81;;;35.52;33.26
70730;BME280;58315;53.336;55.932;2022-07-17T06:59:35;99840.34;;;35.62;33.39
70730;BME280;58315;53.336;55.932;2022-07-17T07:02:01;99837.59;;;35.62;33.37
70730;BME280;58315;53.336;55.932;2022-07-17T07:04:27;99838.88;;;35.45;33.41
70730;BME280;58315;53.336;55.932;2022-07-17T07:06:53;99843.22;;;35.33;33.67
70730;BME280;58315;53.336;55.932;2022-07-17T07:09:19;99847.69;;;35.05;32.81
70730;BME280;58315;53.336;55.932;2022-07-17T07:11:45;99832.22;;;34.37;33.94
70730;BME280;58315;53.336;55.932;2022-07-17T07:14:11;99845.03;;;34.46;34.47
70730;BME280;58315;53.336;55.932;2022-07-17T07:16:37;99845.03;;;34.46;34.94
70730;BME280;58315;53.336;55.932;2022-07-17T07:19:03;99849.91;;;34.54;34.67
70730;BME280;58315;53.336;55.932;2022-07-17T07:21:29;99857.06;;;34.50;35.41
70730;BME280;58315;53.336;55.932;2022-07-17T07:23:55;99840.31;;;34.76;35.45
70730;BME280;58315;53.336;55.932;2022-07-17T07:26:22;99841.19;;;34.95;35.49
70730;BME280;58315;53.336;55.932;2022-07-17T07:28:48;99836.94;;;34.84;35.37
70730;BME280;58315;53.336;55.932;2022-07-17T07:31:14;99838.13;;;34.78;35.63
70730;BME280;58315;53.336;55.932;2022-07-17T07:33:43;99839.16;;;34.58;35.68
70730;BME280;58315;53.336;55.932;2022-07-17T07:36:09;99835.56;;;34.04;36.31
70730;BME280;58315;53.336;55.932;2022-07-17T07:38:35;99837.00;;;33.92;36.76
70730;BME280;58315;53.336;55.932;2022-07-17T07:41:02;99825.56;;;33.84;36.77
70730;BME280;58315;53.336;55.932;2022-07-17T07:43:29;99830.28;;;33.74;36.81
70730;BME280;58315;53.336;55.932;2022-07-17T07:45:55;99833.09;;;33.64;36.84
70730;BME280;58315;53.336;55.932;2022-07-17T07:48:22;99833.16;;;33.58;36.79
70730;BME280;58315;53.336;55.932;2022-07-17T07:50:48;99832.91;;;33.55;36.90
70730;BME280;58315;53.336;55.932;2022-07-17T07:53:14;99838.16;;;33.46;36.92
70730;BME280;58315;53.336;55.932;2022-07-17T07:55:40;99833.75;;;33.50;36.86
70730;BME280;58315;53.336;55.932;2022-07-17T07:58:12;99834.50;;;33.61;37.03
70730;BME280;58315;53.336;55.932;2022-07-17T08:00:39;99830.88;;;33.71;37.12
70730;BME280;58315;53.336;55.932;2022-07-17T08:03:06;99829.22;;;33.70;36.94
70730;BME280;58315;53.336;55.932;2022-07-17T08:05:33;99829.38;;;33.49;36.97
70730;BME280;58315;53.336;55.932;2022-07-17T08:07:59;99827.72;;;33.53;37.16
70730;BME280;58315;53.336;55.932;2022-07-17T08:10:26;99831.53;;;33.52;36.89
70730;BME280;58315;53.336;55.932;2022-07-17T08:12:51;99821.44;;;33.48;37.16
70730;BME280;58315;53.336;55.932;2022-07-17T08:15:19;99828.88;;;33.81;37.48
70730;BME280;58315;53.336;55.932;2022-07-17T08:17:46;99818.06;;;33.95;36.86
70730;BME280;58315;53.336;55.932;2022-07-17T08:20:13;99822.91;;;34.08;36.66
70730;BME280;58315;53.336;55.932;2022-07-17T08:22:44;99820.25;;;33.98;36.64
70730;BME280;58315;53.336;55.932;2022-07-17T08:25:10;99821.22;;;33.78;37.00
70730;BME280;58315;53.336;55.932;2022-07-17T08:27:38;99812.72;;;33.80;36.85
70730;BME280;58315;53.336;55.932;2022-07-17T08:30:06;99827.03;;;33.72;37.35
70730;BME280;58315;53.336;55.932;2022-07-17T08:32:34;99827.94;;;33.62;37.49
70730;BME280;58315;53.336;55.932;2022-07-17T08:35:04;99831.47;;;33.63;37.88
70730;BME280;58315;53.336;55.932;2022-07-17T08:37:30;99828.56;;;33.49;37.72
70730;BME280;58315;53.336;55.932;2022-07-17T08:39:56;99827.06;;;33.22;37.54
70730;BME280;58315;53.336;55.932;2022-07-17T08:42:23;99824.16;;;33.03;37.92
70730;BME280;58315;53.336;55.932;2022-07-17T08:44:49;99823.00;;;33.15;38.26
70730;BME280;58315;53.336;55.932;2022-07-17T08:47:15;99823.19;;;33.28;37.96
70730;BME280;58315;53.336;55.932;2022-07-17T08:49:46;99827.13;;;33.56;38.04
70730;BME280;58315;53.336;55.932;2022-07-17T08:52:14;99830.59;;;33.72;38.00
70730;BME280;58315;53.336;55.932;2022-07-17T08:54:41;99828.44;;;34.03;38.09
70730;BME280;58315;53.336;55.932;2022-07-17T08:57:08;99827.69;;;34.27;37.25
70730;BME280;58315;53.336;55.932;2022-07-17T08:59:35;99823.25;;;34.31;37.06
70730;BME280;58315;53.336;55.932;2022-07-17T09:02:01;99827.94;;;34.54;37.19
70730;BME280;58315;53.336;55.932;2022-07-17T09:04:29;99827.66;;;34.80;36.98
70730;BME280;58315;53.336;55.932;2022-07-17T09:07:02;99835.69;;;35.00;36.64
70730;BME280;58315;53.336;55.932;2022-07-17T09:09:29;99829.44;;;34.71;36.94
70730;BME280;58315;53.336;55.932;2022-07-17T09:11:57;99821.94;;;34.76;37.15
70730;BME280;58315;53.336;55.932;2022-07-17T09:14:38;99823.28;;;34.79;37.11
70730;BME280;58315;53.336;55.932;2022-07-17T09:17:08;99820.78;;;34.59;37.10
70730;BME280;58315;53.336;55.932;2022-07-17T09:19:37;99816.09;;;34.59;36.62
70730;BME280;58315;53.336;55.932;2022-07-17T09:22:15;99823.59;;;34.24;36.55
70730;BME280;58315;53.336;55.932;2022-07-17T09:27:08;99807.09;;;33.95;37.07
70730;BME280;58315;53.336;55.932;2022-07-17T09:29:35;99812.84;;;33.99;36.22
70730;BME280;58315;53.336;55.932;2022-07-17T09:32:19;99811.78;;;33.95;36.60
70730;BME280;58315;53.336;55.932;2022-07-17T09:34:47;99807.47;;;33.83;36.53
70730;BME280;58315;53.336;55.932;2022-07-17T09:37:14;99806.81;;;33.63;36.72
70730;BME280;58315;53.336;55.932;2022-07-17T09:39:40;99807.13;;;33.56;36.48
70730;BME280;58315;53.336;55.932;2022-07-17T09:42:06;99811.84;;;33.50;37.47
70730;BME280;58315;53.336;55.932;2022-07-17T09:44:32;99810.63;;;33.67;37.12
70730;BME280;58315;53.336;55.932;2022-07-17T09:47:00;99820.44;;;33.73;36.92
70730;BME280;58315;53.336;55.932;2022-07-17T09:49:28;99813.31;;;33.32;37.21
70730;BME280;58315;53.336;55.932;2022-07-17T09:51:54;99809.31;;;33.15;37.50
70730;BME280;58315;53.336;55.932;2022-07-17T09:54:21;99802.78;;;33.05;37.66
70730;BME280;58315;53.336;55.932;2022-07-17T09:56:50;99798.81;;;32.67;38.06
70730;BME280;58315;53.336;55.932;2022-07-17T09:59:17;99795.78;;;32.69;38.62
70730;BME280;58315;53.336;55.932;2022-07-17T10:01:45;99799.81;;;32.86;37.93
70730;BME280;58315;53.336;55.932;2022-07-17T10:04:15;99797.88;;;33.02;37.90
70730;BME280;58315;53.336;55.932;2022-07-17T10:06:42;99798.94;;;33.06;38.14
70730;BME280;58315;53.336;55.932;2022-07-17T10:09:08;99799.09;;;33.25;37.77
70730;BME280;58315;53.336;55.932;2022-07-17T10:11:38;99798.16;;;33.45;37.52
70730;BME280;58315;53.336;55.932;2022-07-17T10:14:10;99797.06;;;33.46;37.07
70730;BME280;58315;53.336;55.932;2022-07-17T10:16:37;99796.78;;;33.48;37.22
70730;BME280;58315;53.336;55.932;2022-07-17T10:19:20;99811.16;;;33.24;37.45
70730;BME280;58315;53.336;55.932;2022-07-17T10:22:00;99797.28;;;33.05;37.44
70730;BME280;58315;53.336;55.932;2022-07-17T10:24:28;99799.47;;;33.13;37.96
70730;BME280;58315;53.336;55.932;2022-07-17T10:26:55;99798.41;;;33.04;37.78
70730;BME280;58315;53.336;55.932;2022-07-17T10:29:36;99790.75;;;33.06;38.02
70730;BME280;58315;53.336;55.932;2022-07-17T10:32:23;99789.59;;;33.12;37.51
70730;BME280;58315;53.336;55.932;2022-07-17T10:40:15;99785.44;;;33.20;37.58
70730;BME280;58315;53.336;55.932;2022-07-17T10:50:28;99772.47;;;33.36;37.96
70730;BME280;58315;53.336;55.932;2022-07-17T10:55:40;99767.78;;;32.97;37.45
70730;BME280;58315;53.336;55.932;2022-07-17T10:58:26;99770.53;;;32.92;38.05
70730;BME280;58315;53.336;55.932;2022-07-17T11:01:09;99774.03;;;33.08;38.07
70730;BME280;58315;53.336;55.932;2022-07-17T11:03:53;99773.03;;;33.33;38.13
70730;BME280;58315;53.336;55.932;2022-07-17T11:08:55;99778.63;;;33.62;37.15
70730;BME280;58315;53.336;55.932;2022-07-17T11:14:25;99778.63;;;33.62;37.20
70730;BME280;58315;53.336;55.932;2022-07-17T11:16:52;99785.63;;;33.39;37.83
70730;BME280;58315;53.336;55.932;2022-07-17T11:21:53;99782.56;;;32.96;37.80
70730;BME280;58315;53.336;55.932;2022-07-17T11:24:20;99779.38;;;32.74;38.85
70730;BME280;58315;53.336;55.932;2022-07-17T11:26:49;99774.00;;;32.43;38.24
70730;BME280;58315;53.336;55.932;2022-07-17T11:29:16;99775.13;;;32.27;38.92
70730;BME280;58315;53.336;55.932;2022-07-17T11:31:43;99775.13;;;32.16;39.32
70730;BME280;58315;53.336;55.932;2022-07-17T11:34:10;99771.00;;;32.45;39.15
70730;BME280;58315;53.336;55.932;2022-07-17T11:36:42;99770.09;;;32.70;39.15
70730;BME280;58315;53.336;55.932;2022-07-17T11:39:11;99764.88;;;32.68;38.80
70730;BME280;58315;53.336;55.932;2022-07-17T11:41:38;99773.91;;;32.74;38.72
70730;BME280;58315;53.336;55.932;2022-07-17T11:44:07;99765.91;;;32.82;38.28
70730;BME280;58315;53.336;55.932;2022-07-17T11:46:35;99764.81;;;32.83;38.32
70730;BME280;58315;53.336;55.932;2022-07-17T11:49:03;99772.16;;;32.98;38.74
70730;BME280;58315;53.336;55.932;2022-07-17T11:51:47;99768.19;;;33.25;37.99
70730;BME280;58315;53.336;55.932;2022-07-17T11:54:14;99768.44;;;33.28;38.09
70730;BME280;58315;53.336;55.932;2022-07-17T11:56:50;99767.03;;;33.31;38.38
70730;BME280;58315;53.336;55.932;2022-07-17T11:59:25;99766.00;;;33.22;37.94
70730;BME280;58315;53.336;55.932;2022-07-17T12:01:51;99767.78;;;32.92;38.01
70730;BME280;58315;53.336;55.932;2022-07-17T12:04:17;99760.16;;;32.89;38.13
70730;BME280;58315;53.336;55.932;2022-07-17T12:06:45;99759.84;;;32.90;38.35
70730;BME280;58315;53.336;55.932;2022-07-17T12:09:12;99760.97;;;32.95;38.11
70730;BME280;58315;53.336;55.932;2022-07-17T12:11:48;99764.53;;;32.95;37.52
70730;BME280;58315;53.336;55.932;2022-07-17T12:14:15;99762.91;;;32.84;37.80
70730;BME280;58315;53.336;55.932;2022-07-17T12:16:41;99762.34;;;32.87;37.55
70730;BME280;58315;53.336;55.932;2022-07-17T12:19:10;99765.97;;;32.77;37.43
70730;BME280;58315;53.336;55.932;2022-07-17T12:21:53;99758.78;;;32.86;38.34
70730;BME280;58315;53.336;55.932;2022-07-17T12:24:21;99756.34;;;32.80;37.65
70730;BME280;58315;53.336;55.932;2022-07-17T12:26:48;99767.63;;;32.68;37.33
70730;BME280;58315;53.336;55.932;2022-07-17T12:29:14;99765.50;;;32.50;37.79
70730;BME280;58315;53.336;55.932;2022-07-17T12:31:40;99758.63;;;32.57;37.73
70730;BME280;58315;53.336;55.932;2022-07-17T12:34:07;99771.47;;;32.67;37.94
70730;BME280;58315;53.336;55.932;2022-07-17T12:36:33;99763.25;;;32.67;37.71
70730;BME280;58315;53.336;55.932;2022-07-17T12:38:59;99754.81;;;32.53;37.69
70730;BME280;58315;53.336;55.932;2022-07-17T12:41:25;99759.16;;;32.64;37.87
70730;BME280;58315;53.336;55.932;2022-07-17T12:43:52;99755.09;;;32.62;37.49
70730;BME280;58315;53.336;55.932;2022-07-17T12:46:17;99748.47;;;32.68;37.63
70730;BME280;58315;53.336;55.932;2022-07-17T12:48:44;99757.56;;;32.53;37.87
70730;BME280;58315;53.336;55.932;2022-07-17T12:51:12;99756.72;;;32.63;38.22
70730;BME280;58315;53.336;55.932;2022-07-17T12:53:42;99753.59;;;32.80;37.92
70730;BME280;58315;53.336;55.932;2022-07-17T12:56:09;99751.19;;;32.73;37.96
70730;BME280;58315;53.336;55.932;2022-07-17T12:58:36;99746.03;;;32.67;37.98
70730;BME280;58315;53.336;55.932;2022-07-17T13:01:04;99741.16;;;32.58;38.09
70730;BME280;58315;53.336;55.932;2022-07-17T13:03:31;99745.44;;;32.75;38.26
70730;BME280;58315;53.336;55.932;2022-07-17T13:05:57;99747.06;;;32.76;38.12
70730;BME280;58315;53.336;55.932;2022-07-17T13:08:23;99739.13;;;32.79;37.52
70730;BME280;58315;53.336;55.932;2022-07-17T13:10:49;99748.78;;;32.67;38.20
70730;BME280;58315;53.336;55.932;2022-07-17T13:13:14;99752.91;;;32.59;37.59
70730;BME280;58315;53.336;55.932;2022-07-17T13:15:40;99745.34;;;32.25;38.21